< < Back
Terminal Aerodrome Forecast


Current Version              Previous Versions:   1  2  3  4  5  6  7  8  9  

Terminal Aerodrome Forecast

048
FTUS42 KGSP 211700
TAFAND
TAF
KAND 211735Z 2118/2218 27010G18KT P6SM SCT050
     FM212300 27008KT P6SM SCT060 BKN250
     FM220900 35004KT P6SM SCT050 BKN250
     FM221500 05010KT P6SM SCT050 BKN250=

Latest METAR

296
SAUS70 KWBC 212000
MTRAND
METAR KAND 211956Z AUTO 25012G18KT 10SM CLR 30/17 A2991 RMK AO2 SLP118
T03000172


USA.gov is the U.S. government's official web portal to all federal, state and local government web resources and services.